^^
Station Historical Data
Daily Summary for January 7, 2018 Units:  English    Metric   Both
« Previous Day
Next Day »
Daily Weekly Monthly Yearly Custom
  High: Low: Average:
Temperature: TemperatureC °F -4.4 °F -2.3 °F
Dew Point: DewpointC °F -6.4 °F -4.3 °F
Humidity: Humidity% 76% 85%
Wind Speed: WindSpeedKMHmph 0.0mph 2.5mph
Wind Gust: WindSpeedGustKMHmph - -
Wind- - WNW
Pressure: PressurehPa in 1002.9 in -
Precipitation: 0.0 in    
Historical Graphs
 
 
Tabular Data for January 7, 2018
Time Temperature Dew Point Pressure Wind Wind Speed Wind Gust Humidity Rainfall Rate (Hourly) solar Conditions
TemperatureC °F DewpointC °F PressurehPa in Calm     Humidity% HourlyPrecipMM in SoftwareType W/m2 Conditions
00:00 -2.3 °F -3.6 °F 1002.9 in NW 2.6 mph 5.6 mph 91% 0.0 in WeatherDisplay:10.37 W/m2 RA
00:05 -2.3 °F -3.6 °F 1002.9 in Calm   5.6 mph 91% 0.0 in WeatherDisplay:10.37 W/m2 RA
00:11 -2.3 °F -3.7 °F 1003.3 in NNW 4.7 mph 13.0 mph 90% 0.0 in WeatherDisplay:10.37 W/m2 FEW
00:17 -2.3 °F -3.8 °F 1003.3 in NNW 6.8 mph 7.4 mph 90% 0.0 in WeatherDisplay:10.37 W/m2 FEW
00:22 -2.3 °F -3.7 °F 1003.6 in NW 4.8 mph 8.0 mph 90% 0.0 in WeatherDisplay:10.37 W/m2 FEW
00:26 -2.3 °F -3.7 °F 1003.6 in NNW 5.5 mph 16.7 mph 90% 0.0 in WeatherDisplay:10.37 W/m2 FEW
00:31 -2.3 °F -3.7 °F 1003.6 in NNW 4.2 mph 7.4 mph 90% 0.0 in WeatherDisplay:10.37 W/m2 FEW
00:37 -2.3 °F -3.7 °F 1003.6 in NW 0.2 mph 3.2 mph 90% 0.0 in WeatherDisplay:10.37 W/m2 FEW
00:42 -2.3 °F -3.9 °F 1003.9 in WNW 3.4 mph 5.6 mph 89% 0.0 in WeatherDisplay:10.37 W/m2 FEW
00:47 -2.4 °F -3.9 °F 1003.9 in WNW 10.1 mph 22.2 mph 89% 0.0 in WeatherDisplay:10.37 W/m2 FEW
00:52 -2.4 °F -4.0 °F 1003.9 in WNW 7.7 mph 16.7 mph 89% 0.0 in WeatherDisplay:10.37 W/m2 FEW
00:57 -2.5 °F -4.1 °F 1003.9 in NW 4.2 mph 8.0 mph 89% 0.0 in WeatherDisplay:10.37 W/m2 FEW
01:01 -2.5 °F -3.9 °F 1003.9 in WNW 7.7 mph 14.8 mph 90% 0.0 in WeatherDisplay:10.37 W/m2 FEW
01:06 -2.6 °F -3.9 °F 1004.3 in WNW 7.9 mph 13.0 mph 90% 0.0 in WeatherDisplay:10.37 W/m2 FEW
01:11 -2.6 °F -3.9 °F 1004.3 in NW 2.6 mph 5.6 mph 90% 0.0 in WeatherDisplay:10.37 W/m2 FEW
01:17 -2.6 °F -3.9 °F 1004.3 in NNW 5.0 mph 7.4 mph 91% 0.0 in WeatherDisplay:10.37 W/m2 FEW
01:23 -2.6 °F -3.9 °F 1004.6 in NW 4.7 mph 11.1 mph 91% 0.0 in WeatherDisplay:10.37 W/m2 FEW
01:28 -2.7 °F -3.9 °F 1004.6 in WSW 1.1 mph 3.7 mph 91% 0.0 in WeatherDisplay:10.37 W/m2 FEW
01:33 -2.7 °F -3.9 °F 1005.0 in NNW 7.4 mph 14.8 mph 91% 0.0 in WeatherDisplay:10.37 W/m2 FEW
01:38 -2.7 °F -4.0 °F 1005.0 in NNW 7.9 mph 16.7 mph 91% 0.0 in WeatherDisplay:10.37 W/m2 FEW
01:43 -2.7 °F -4.0 °F 1005.3 in NNW 5.1 mph 14.8 mph 91% 0.0 in WeatherDisplay:10.37 W/m2 FEW
01:48 -2.7 °F -4.1 °F 1005.3 in WNW 6.6 mph 7.4 mph 90% 0.0 in WeatherDisplay:10.37 W/m2 FEW
01:53 -2.7 °F -4.1 °F 1005.3 in NW 1.6 mph 9.3 mph 90% 0.0 in WeatherDisplay:10.37 W/m2 FEW
01:59 -2.7 °F -4.2 °F 1005.6 in NW 2.3 mph 5.6 mph 89% 0.0 in WeatherDisplay:10.37 W/m2 FEW
02:05 -2.7 °F -4.2 °F 1005.6 in North 6.6 mph 14.8 mph 89% 0.0 in WeatherDisplay:10.37 W/m2 FEW
02:11 -2.7 °F -4.2 °F 1005.6 in WNW 7.7 mph 14.8 mph 89% 0.0 in WeatherDisplay:10.37 W/m2 FEW
02:16 -2.7 °F -4.4 °F 1006.0 in NNW 3.9 mph 16.7 mph 88% 0.0 in WeatherDisplay:10.37 W/m2 FEW
02:21 -2.7 °F -4.4 °F 1006.0 in NW 7.9 mph 16.1 mph 88% 0.0 in WeatherDisplay:10.37 W/m2 FEW
02:26 -2.7 °F -4.6 °F 1006.0 in NNW 2.7 mph 7.4 mph 87% 0.0 in WeatherDisplay:10.37 W/m2 FEW
02:31 -2.8 °F -4.7 °F 1006.3 in WNW 4.5 mph 13.0 mph 87% 0.0 in WeatherDisplay:10.37 W/m2 FEW
02:37 -2.8 °F -4.7 °F 1006.3 in WNW 7.6 mph 14.8 mph 87% 0.0 in WeatherDisplay:10.37 W/m2 FEW
02:42 -2.8 °F -4.7 °F 1006.3 in NNW 4.3 mph 14.8 mph 87% 0.0 in WeatherDisplay:10.37 W/m2 FEW
02:47 -2.8 °F -5.0 °F 1006.7 in NNW 8.0 mph 18.5 mph 85% 0.0 in WeatherDisplay:10.37 W/m2 FEW
02:53 -2.9 °F -5.1 °F 1006.7 in NNW 6.0 mph 13.0 mph 85% 0.0 in WeatherDisplay:10.37 W/m2 FEW
02:55 -2.9 °F -5.1 °F 1006.7 in NNW 1.3 mph 9.3 mph 85% 0.0 in WeatherDisplay:10.37 W/m2 FEW
03:00 -2.9 °F -5.1 °F 1007.0 in NNW 7.2 mph 16.7 mph 85% 0.0 in WeatherDisplay:10.37 W/m2 FEW
03:05 -3.0 °F -5.3 °F 1007.0 in NNW 4.3 mph 19.3 mph 84% 0.0 in WeatherDisplay:10.37 W/m2 FEW
03:10 -3.1 °F -5.4 °F 1007.0 in West 5.3 mph 11.3 mph 84% 0.0 in WeatherDisplay:10.37 W/m2 FEW
03:15 -3.1 °F -5.6 °F 1007.3 in NNW 1.3 mph 13.0 mph 83% 0.0 in WeatherDisplay:10.37 W/m2 FEW
03:21 -3.2 °F -5.7 °F 1007.3 in NW 3.7 mph 13.0 mph 83% 0.0 in WeatherDisplay:10.37 W/m2 FEW
03:26 -3.2 °F -5.7 °F 1007.7 in NNW 1.9 mph 5.6 mph 83% 0.0 in WeatherDisplay:10.37 W/m2 FEW
03:31 -3.3 °F -5.9 °F 1007.7 in NNW 0.8 mph 5.6 mph 82% 0.0 in WeatherDisplay:10.37 W/m2 FEW
03:34 -3.3 °F -5.8 °F 1007.7 in NNW 1.3 mph 9.3 mph 83% 0.0 in WeatherDisplay:10.37 W/m2 FEW
03:39 -3.4 °F -5.9 °F 1007.7 in NNW 5.6 mph 11.1 mph 83% 0.0 in WeatherDisplay:10.37 W/m2 FEW
03:44 -3.5 °F -5.9 °F 1008.0 in WNW 5.3 mph 7.4 mph 83% 0.0 in WeatherDisplay:10.37 W/m2 FEW
03:49 -3.6 °F -6.0 °F 1008.0 in NW 9.5 mph 16.7 mph 83% 0.0 in WeatherDisplay:10.37 W/m2 FEW
03:55 -3.7 °F -6.1 °F 1008.4 in WNW 3.5 mph 13.0 mph 83% 0.0 in WeatherDisplay:10.37 W/m2 FEW
03:59 -3.7 °F -6.1 °F 1008.4 in NNW 5.0 mph 14.8 mph 83% 0.0 in WeatherDisplay:10.37 W/m2 FEW
04:04 -3.8 °F -6.2 °F 1008.4 in NW 6.0 mph 18.5 mph 83% 0.0 in WeatherDisplay:10.37 W/m2 FEW
04:09 -3.8 °F -6.3 °F 1008.7 in NNW 3.7 mph 7.4 mph 83% 0.0 in WeatherDisplay:10.37 W/m2 FEW
04:14 -3.9 °F -6.2 °F 1008.7 in NNW 5.3 mph 9.3 mph 84% 0.0 in WeatherDisplay:10.37 W/m2 FEW
04:19 -3.9 °F -6.4 °F 1008.7 in NW 1.1 mph 9.3 mph 83% 0.0 in WeatherDisplay:10.37 W/m2 FEW
04:24 -4.0 °F -6.3 °F 1008.7 in NW 4.3 mph 6.4 mph 84% 0.0 in WeatherDisplay:10.37 W/m2 FEW
04:30 -4.0 °F -6.3 °F 1009.0 in WSW 3.5 mph 12.9 mph 84% 0.0 in WeatherDisplay:10.37 W/m2 FEW
04:35 -4.0 °F -6.3 °F 1009.0 in NW 1.4 mph 18.5 mph 84% 0.0 in WeatherDisplay:10.37 W/m2 FEW
04:40 -4.0 °F -6.3 °F 1009.0 in WNW 1.9 mph 3.7 mph 84% 0.0 in WeatherDisplay:10.37 W/m2 FEW
04:45 -4.0 °F -6.3 °F 1009.0 in NNW 3.4 mph 13.0 mph 84% 0.0 in WeatherDisplay:10.37 W/m2 FEW
04:51 -4.0 °F -6.3 °F 1009.4 in Calm     84% 0.0 in WeatherDisplay:10.37 W/m2 FEW
04:52 -4.0 °F -6.3 °F 1009.4 in NW 1.6 mph 6.4 mph 84% 0.0 in WeatherDisplay:10.37 W/m2 FEW
04:57 -4.0 °F -6.3 °F 1009.4 in Calm     84% 0.0 in WeatherDisplay:10.37 W/m2 FEW
04:59 -4.1 °F -6.3 °F 1009.4 in NW 2.6 mph 5.6 mph 84% 0.0 in WeatherDisplay:10.37 W/m2 FEW
05:05 -4.1 °F -6.3 °F 1009.4 in Calm     84% 0.0 in WeatherDisplay:10.37 W/m2 FEW
05:10 -4.1 °F -6.3 °F 1009.7 in WNW 1.6 mph 7.4 mph 85% 0.0 in WeatherDisplay:10.37 W/m2 FEW
05:17 -4.2 °F -6.3 °F 1009.7 in Calm     85% 0.0 in WeatherDisplay:10.37 W/m2 FEW
05:22 -4.2 °F -6.2 °F 1009.7 in Calm     86% 0.0 in WeatherDisplay:10.37 W/m2 FEW
05:27 -4.3 °F -6.1 °F 1009.7 in SW 0.3 mph 3.2 mph 87% 0.0 in WeatherDisplay:10.37 W/m2 FEW
05:33 -4.3 °F -6.2 °F 1009.7 in NNW 1.3 mph 4.8 mph 87% 0.0 in WeatherDisplay:10.37 W/m2 FEW
05:38 -4.3 °F -6.2 °F 1009.7 in WNW 2.1 mph 2.1 mph 87% 0.0 in WeatherDisplay:10.37 W/m2 FEW
05:44 -4.3 °F -6.2 °F 1009.7 in Calm   5.6 mph 87% 0.0 in WeatherDisplay:10.37 W/m2 FEW
05:50 -4.4 °F -6.1 °F 1010.0 in Calm     88% 0.0 in WeatherDisplay:10.37 W/m2 FEW
05:55 -4.4 °F -6.1 °F 1010.0 in Calm     88% 0.0 in WeatherDisplay:10.37 W/m2 FEW
06:00 -4.4 °F -6.1 °F 1010.0 in Calm     88% 0.0 in WeatherDisplay:10.37 W/m2 FEW
06:05 -4.4 °F -6.1 °F 1010.4 in WNW 0.5 mph 7.4 mph 88% 0.0 in WeatherDisplay:10.37 W/m2 FEW
06:10 -4.4 °F -6.0 °F 1010.4 in NW 0.2 mph 5.6 mph 89% 0.0 in WeatherDisplay:10.37 W/m2 FEW
06:16 -4.4 °F -6.0 °F 1010.4 in Calm     89% 0.0 in WeatherDisplay:10.37 W/m2 FEW
06:21 -4.4 °F -6.0 °F 1010.4 in NW 2.6 mph 3.7 mph 89% 0.0 in WeatherDisplay:10.37 W/m2 FEW
06:27 -4.4 °F -6.0 °F 1010.4 in SW 0.2 mph 3.7 mph 89% 0.0 in WeatherDisplay:10.37 W/m2 FEW
06:32 -4.4 °F -5.8 °F 1010.4 in SW 0.6 mph 3.7 mph 90% 0.0 in WeatherDisplay:10.37 W/m2 FEW
06:37 -4.4 °F -5.8 °F 1010.7 in Calm     90% 0.0 in WeatherDisplay:10.37 W/m2 FEW
06:42 -4.4 °F -5.8 °F 1010.7 in West 0.6 mph 3.7 mph 90% 0.0 in WeatherDisplay:10.37 W/m2 FEW
06:47 -4.4 °F -5.8 °F 1010.7 in West 1.3 mph 3.7 mph 90% 0.0 in WeatherDisplay:10.37 W/m2 FEW
06:52 -4.3 °F -5.7 °F 1010.7 in Calm   5.6 mph 90% 0.0 in WeatherDisplay:10.37 W/m2 FEW
06:58 -4.3 °F -5.7 °F 1010.7 in Calm   1.9 mph 90% 0.0 in WeatherDisplay:10.37 W/m2 FEW
07:03 -4.3 °F -5.7 °F 1011.1 in West 0.8 mph 5.6 mph 90% 0.0 in WeatherDisplay:10.37 W/m2 FEW
07:08 -4.3 °F -5.7 °F 1011.1 in West 1.3 mph 3.7 mph 90% 0.0 in WeatherDisplay:10.37 W/m2 FEW
07:13 -4.2 °F -5.6 °F 1011.1 in Calm   1.9 mph 90% 0.0 in WeatherDisplay:10.37 W/m2 FEW
07:18 -4.2 °F -5.6 °F 1011.1 in Calm     90% 0.0 in WeatherDisplay:10.37 W/m2 FEW
07:23 -4.2 °F -5.7 °F 1011.1 in Calm   1.9 mph 89% 0.0 in WeatherDisplay:10.37 W/m2 FEW
07:28 -4.0 °F -5.6 °F 1011.1 in NNW 2.4 mph 7.4 mph 89% 0.0 in WeatherDisplay:10.37 W/m2 FEW
07:33 -3.9 °F -5.5 °F 1011.1 in NW 0.8 mph 3.7 mph 89% 0.0 in WeatherDisplay:10.37 W/m2 FEW
07:38 -3.9 °F -5.5 °F 1011.4 in Calm   3.7 mph 89% 0.0 in WeatherDisplay:10.37 W/m2 FEW
07:43 -3.9 °F -5.5 °F 1011.4 in West 0.3 mph 5.6 mph 89% 0.0 in WeatherDisplay:10.37 W/m2 FEW
07:48 -3.9 °F -5.5 °F 1011.4 in South 1.4 mph 5.6 mph 89% 0.0 in WeatherDisplay:10.37 W/m2 FEW
07:54 -4.0 °F -5.6 °F 1011.4 in WSW 0.5 mph 3.7 mph 89% 0.0 in WeatherDisplay:10.37 W/m2 FEW
07:59 -4.0 °F -5.6 °F 1011.4 in NW 1.8 mph 5.6 mph 89% 0.0 in WeatherDisplay:10.37 W/m2 FEW
08:04 -4.0 °F -5.6 °F 1011.7 in Calm   5.6 mph 89% 0.0 in WeatherDisplay:10.37 W/m2 FEW
08:09 -4.1 °F -5.6 °F 1011.7 in North 1.1 mph 5.6 mph 89% 0.0 in WeatherDisplay:10.37 W/m2 FEW
08:15 -4.1 °F -5.7 °F 1011.7 in WSW 0.6 mph 5.6 mph 89% 0.0 in WeatherDisplay:10.37 W/m2 FEW
08:20 -4.1 °F -5.6 °F 1011.7 in WSW 0.3 mph 1.9 mph 89% 0.0 in WeatherDisplay:10.37 W/m2 FEW
08:25 -4.0 °F -5.6 °F 1011.7 in WNW 0.3 mph 5.6 mph 89% 0.0 in WeatherDisplay:10.37 W/m2 FEW
08:30 -3.9 °F -5.5 °F 1011.7 in West 1.3 mph 1.9 mph 89% 0.0 in WeatherDisplay:10.37 W/m2 FEW
08:36 -3.9 °F -5.5 °F 1011.7 in Calm     89% 0.0 in WeatherDisplay:10.37 W/m2 FEW
08:42 -3.9 °F -5.5 °F 1012.1 in West 0.3 mph 1.9 mph 89% 0.0 in WeatherDisplay:10.37 W/m2 FEW
08:46 -3.9 °F -5.5 °F 1012.1 in Calm   5.6 mph 89% 0.0 in WeatherDisplay:10.37 W/m2 FEW
08:51 -3.8 °F -5.4 °F 1012.1 in NW 0.2 mph 14.8 mph 89% 0.0 in WeatherDisplay:10.37 W/m2 FEW
08:56 -3.8 °F -5.3 °F 1012.1 in Calm     89% 0.0 in WeatherDisplay:10.37 W/m2 FEW
09:02 -3.8 °F -5.3 °F 1012.1 in WSW 1.1 mph 3.7 mph 89% 0.0 in WeatherDisplay:10.37 W/m2 FEW
09:07 -3.7 °F -5.3 °F 1012.4 in NNW 0.8 mph 3.7 mph 89% 0.0 in WeatherDisplay:10.37 W/m2 FEW
09:12 -3.7 °F -5.2 °F 1012.4 in West 1.8 mph 9.3 mph 89% 0.0 in WeatherDisplay:10.37 W/m2 FEW
09:17 -3.5 °F -5.1 °F 1012.4 in Calm   3.7 mph 89% 0.0 in WeatherDisplay:10.37 W/m2 FEW
09:22 -3.4 °F -5.0 °F 1012.8 in Calm   5.6 mph 89% 0.0 in WeatherDisplay:10.37 W/m2 FEW
09:27 -3.4 °F -5.0 °F 1012.8 in WNW 3.9 mph 13.0 mph 89% 0.0 in WeatherDisplay:10.37 W/m2 FEW
09:32 -3.4 °F -5.1 °F 1012.8 in NW 0.5 mph 5.6 mph 88% 0.0 in WeatherDisplay:10.37 W/m2 FEW
09:37 -3.3 °F -5.1 °F 1012.8 in West 3.5 mph 5.6 mph 88% 0.0 in WeatherDisplay:10.37 W/m2 FEW
09:42 -3.3 °F -5.1 °F 1013.1 in WNW 3.1 mph 9.3 mph 88% 0.0 in WeatherDisplay:10.37 W/m2 FEW
09:47 -3.3 °F -5.0 °F 1013.1 in WNW 0.3 mph 4.8 mph 88% 0.0 in WeatherDisplay:10.37 W/m2 FEW
09:52 -3.3 °F -5.0 °F 1013.1 in WNW 1.3 mph 5.6 mph 88% 0.0 in WeatherDisplay:10.37 W/m2 FEW
09:57 -3.2 °F -4.9 °F 1013.1 in WSW 1.0 mph 5.6 mph 88% 0.0 in WeatherDisplay:10.37 W/m2 FEW
10:02 -3.2 °F -4.9 °F 1013.1 in NW 1.4 mph 7.4 mph 88% 0.0 in WeatherDisplay:10.37 W/m2 FEW
10:08 -3.2 °F -4.9 °F 1013.4 in West 1.8 mph 5.6 mph 88% 0.0 in WeatherDisplay:10.37 W/m2 FEW
10:13 -3.2 °F -4.9 °F 1013.4 in WNW 0.3 mph 18.5 mph 88% 0.0 in WeatherDisplay:10.37 W/m2 FEW
10:18 -3.1 °F -4.8 °F 1013.4 in WNW 3.5 mph 9.7 mph 88% 0.0 in WeatherDisplay:10.37 W/m2 FEW
10:24 -3.1 °F -4.8 °F 1013.4 in Calm     88% 0.0 in WeatherDisplay:10.37 W/m2 FEW
10:30 -2.9 °F -4.7 °F 1013.4 in NW 1.1 mph 5.6 mph 88% 0.0 in WeatherDisplay:10.37 W/m2 FEW
10:35 -2.9 °F -4.6 °F 1013.4 in West 1.8 mph 5.6 mph 88% 0.0 in WeatherDisplay:10.37 W/m2 FEW
10:40 -2.8 °F -4.7 °F 1013.4 in WNW 1.4 mph 5.6 mph 87% 0.0 in WeatherDisplay:10.37 W/m2 FEW
10:45 -2.8 °F -4.5 °F 1013.8 in WNW 1.1 mph 3.7 mph 88% 0.0 in WeatherDisplay:10.37 W/m2 FEW
10:50 -2.7 °F -4.6 °F 1013.8 in West 1.4 mph 5.6 mph 87% 0.0 in WeatherDisplay:10.37 W/m2 FEW
10:55 -2.6 °F -4.5 °F 1013.8 in Calm   3.7 mph 87% 0.0 in WeatherDisplay:10.37 W/m2 FEW
11:00 -2.6 °F -4.4 °F 1014.1 in West 1.6 mph 5.6 mph 87% 0.0 in WeatherDisplay:10.37 W/m2 FEW
11:06 -2.5 °F -4.4 °F 1014.1 in Calm   5.6 mph 87% 0.0 in WeatherDisplay:10.37 W/m2 FEW
11:11 -2.5 °F -4.2 °F 1014.1 in WNW 1.6 mph 6.4 mph 88% 0.0 in WeatherDisplay:10.37 W/m2 FEW
11:16 -2.4 °F -4.3 °F 1014.1 in Calm   13.0 mph 87% 0.0 in WeatherDisplay:10.37 W/m2 FEW
11:22 -2.4 °F -4.3 °F 1014.1 in NW 1.6 mph 4.8 mph 87% 0.0 in WeatherDisplay:10.37 W/m2 FEW
11:27 -2.3 °F -4.2 °F 1014.1 in WNW 1.6 mph 5.6 mph 87% 0.0 in WeatherDisplay:10.37 W/m2 FEW
11:32 -2.2 °F -4.1 °F 1014.1 in West 6.8 mph 16.7 mph 87% 0.0 in WeatherDisplay:10.37 W/m2 FEW
11:35 -2.2 °F -4.1 °F 1014.1 in NW 2.7 mph 5.6 mph 87% 0.0 in WeatherDisplay:10.37 W/m2 FEW
11:40 -2.1 °F -4.0 °F 1014.1 in West 5.1 mph 13.0 mph 87% 0.0 in WeatherDisplay:10.37 W/m2 FEW
11:45 -2.0 °F -3.9 °F 1014.1 in WNW 0.3 mph 11.1 mph 87% 0.0 in WeatherDisplay:10.37 W/m2 FEW
11:50 -2.0 °F -4.1 °F 1014.1 in NNW 0.6 mph 5.6 mph 86% 0.0 in WeatherDisplay:10.37 W/m2 FEW
11:56 -1.9 °F -4.0 °F 1014.1 in West 1.8 mph 5.6 mph 86% 0.0 in WeatherDisplay:10.37 W/m2 FEW
12:01 -1.8 °F -3.7 °F 1014.1 in NW 2.7 mph 8.0 mph 87% 0.0 in WeatherDisplay:10.37 W/m2 FEW
12:06 -1.8 °F -3.8 °F 1014.1 in West 3.5 mph 5.6 mph 86% 0.0 in WeatherDisplay:10.37 W/m2 FEW
12:11 -1.7 °F -3.8 °F 1014.1 in WNW 2.6 mph 6.4 mph 86% 0.0 in WeatherDisplay:10.37 W/m2 FEW
12:16 -1.7 °F -3.7 °F 1014.1 in WNW 2.4 mph 5.6 mph 86% 0.0 in WeatherDisplay:10.37 W/m2 FEW
12:17 -1.7 °F -3.7 °F 1014.1 in WNW 0.6 mph 5.6 mph 86% 0.0 in WeatherDisplay:10.37 W/m2 FEW
12:28 -1.6 °F -3.7 °F 1014.1 in NW 4.5 mph 11.1 mph 85% 0.0 in WeatherDisplay:10.37 W/m2 FEW
12:33 -1.5 °F -3.7 °F 1014.1 in West 5.1 mph 13.0 mph 85% 0.0 in WeatherDisplay:10.37 W/m2 FEW
12:38 -1.4 °F -3.7 °F 1014.1 in NW 2.6 mph 13.0 mph 85% 0.0 in WeatherDisplay:10.37 W/m2 FEW
12:43 -1.4 °F -3.7 °F 1014.1 in NW 1.4 mph 5.6 mph 85% 0.0 in WeatherDisplay:10.37 W/m2 FEW
12:48 -1.4 °F -3.7 °F 1013.8 in WNW 2.1 mph 5.6 mph 85% 0.0 in WeatherDisplay:10.37 W/m2 FEW
12:53 -1.4 °F -3.7 °F 1013.8 in WNW 2.1 mph 4.8 mph 85% 0.0 in WeatherDisplay:10.37 W/m2 FEW
13:03 -1.3 °F -3.7 °F 1014.1 in WNW 1.9 mph 3.7 mph 84% 0.0 in WeatherDisplay:10.37 W/m2 FEW
13:08 -1.3 °F -3.7 °F 1014.1 in NW 5.3 mph 9.3 mph 84% 0.0 in WeatherDisplay:10.37 W/m2 FEW
13:13 -1.3 °F -3.6 °F 1014.1 in West 3.4 mph 9.3 mph 84% 0.0 in WeatherDisplay:10.37 W/m2 FEW
13:18 -1.2 °F -3.7 °F 1014.1 in SW 1.0 mph 9.3 mph 83% 0.0 in WeatherDisplay:10.37 W/m2 FEW
13:23 -1.2 °F -3.7 °F 1014.1 in WNW 4.3 mph 9.3 mph 83% 0.0 in WeatherDisplay:10.37 W/m2 FEW
13:29 -1.1 °F -3.8 °F 1014.1 in WSW 1.9 mph 11.1 mph 82% 0.0 in WeatherDisplay:10.37 W/m2 FEW
13:35 -1.1 °F -3.8 °F 1014.1 in WNW 6.3 mph 18.5 mph 82% 0.0 in WeatherDisplay:10.37 W/m2 FEW
13:40 -1.1 °F -3.9 °F 1014.1 in West 5.6 mph 12.9 mph 81% 0.0 in WeatherDisplay:10.37 W/m2 FEW
13:45 -1.1 °F -3.7 °F 1014.1 in NW 3.1 mph 9.3 mph 82% 0.0 in WeatherDisplay:10.37 W/m2 FEW
13:49 -1.0 °F -3.7 °F 1014.1 in North 3.1 mph 16.7 mph 82% 0.0 in WeatherDisplay:10.37 W/m2 FEW
13:55 -0.9 °F -3.6 °F 1014.1 in NW 3.7 mph 9.3 mph 82% 0.0 in WeatherDisplay:10.37 W/m2 FEW
14:01 -0.9 °F -3.6 °F 1014.1 in NNW 3.9 mph 12.9 mph 82% 0.0 in WeatherDisplay:10.37 W/m2 FEW
14:07 -0.8 °F -3.5 °F 1013.8 in NNW 2.3 mph 5.6 mph 82% 0.0 in WeatherDisplay:10.37 W/m2 FEW
14:12 -0.8 °F -3.7 °F 1013.8 in NNW 2.6 mph 5.6 mph 81% 0.0 in WeatherDisplay:10.37 W/m2 FEW
14:18 -0.9 °F -3.7 °F 1013.8 in NNW 1.1 mph 5.6 mph 81% 0.0 in WeatherDisplay:10.37 W/m2 FEW
14:23 -0.9 °F -3.8 °F 1013.8 in NNW 3.1 mph 6.4 mph 81% 0.0 in WeatherDisplay:10.37 W/m2 FEW
14:27 -0.9 °F -3.8 °F 1013.8 in WNW 4.2 mph 13.0 mph 81% 0.0 in WeatherDisplay:10.37 W/m2 FEW
14:32 -0.9 °F -3.6 °F 1013.8 in Calm   11.1 mph 82% 0.0 in WeatherDisplay:10.37 W/m2 FEW
14:37 -1.0 °F -3.8 °F 1013.8 in North 4.5 mph 14.8 mph 81% 0.0 in WeatherDisplay:10.37 W/m2 FEW
14:42 -0.9 °F -3.6 °F 1013.4 in West 5.0 mph 7.4 mph 82% 0.0 in WeatherDisplay:10.37 W/m2 FEW
14:47 -1.0 °F -3.8 °F 1013.4 in Calm     81% 0.0 in WeatherDisplay:10.37 W/m2 FEW
14:52 -1.1 °F -3.7 °F 1013.4 in NW 2.6 mph 9.3 mph 82% 0.0 in WeatherDisplay:10.37 W/m2 FEW
14:57 -1.1 °F -3.7 °F 1013.4 in WNW 0.8 mph 5.6 mph 82% 0.0 in WeatherDisplay:10.37 W/m2 FEW
15:02 -1.1 °F -3.8 °F 1013.4 in Calm     82% 0.0 in WeatherDisplay:10.37 W/m2 FEW
15:07 -1.2 °F -3.7 °F 1013.4 in SSE 1.4 mph 7.4 mph 83% 0.0 in WeatherDisplay:10.37 W/m2 FEW
15:12 -1.3 °F -3.6 °F 1013.4 in Calm     84% 0.0 in WeatherDisplay:10.37 W/m2 FEW
15:17 -1.3 °F -3.7 °F 1013.4 in Calm   3.7 mph 84% 0.0 in WeatherDisplay:10.37 W/m2 FEW
15:23 -1.4 °F -3.7 °F 1013.1 in Calm   1.6 mph 84% 0.0 in WeatherDisplay:10.37 W/m2 FEW
15:28 -1.4 °F -3.6 °F 1013.1 in Calm     85% 0.0 in WeatherDisplay:10.37 W/m2 FEW
15:38 -1.4 °F -3.7 °F 1013.1 in WSW 2.4 mph 5.6 mph 85% 0.0 in WeatherDisplay:10.37 W/m2 FEW
15:43 -1.4 °F -3.7 °F 1013.1 in SW 3.2 mph 5.6 mph 85% 0.0 in WeatherDisplay:10.37 W/m2 FEW
15:48 -1.4 °F -3.7 °F 1012.8 in Calm     85% 0.0 in WeatherDisplay:10.37 W/m2 FEW
15:54 -1.4 °F -3.7 °F 1013.1 in Calm     85% 0.0 in WeatherDisplay:10.37 W/m2 FEW
15:59 -1.4 °F -3.7 °F 1012.8 in WNW 0.8 mph 5.6 mph 85% 0.0 in WeatherDisplay:10.37 W/m2 FEW
16:04 -1.4 °F -3.7 °F 1012.8 in WSW 0.8 mph 3.7 mph 85% 0.0 in WeatherDisplay:10.37 W/m2 FEW
16:09 -1.4 °F -3.8 °F 1012.8 in Calm     84% 0.0 in WeatherDisplay:10.37 W/m2 FEW
16:14 -1.5 °F -3.8 °F 1012.8 in Calm     84% 0.0 in WeatherDisplay:10.37 W/m2 FEW
16:19 -1.5 °F -4.0 °F 1012.4 in Calm   1.9 mph 83% 0.0 in WeatherDisplay:10.37 W/m2 FEW
16:22 -1.5 °F -4.0 °F 1012.4 in Calm   3.7 mph 83% 0.0 in WeatherDisplay:10.37 W/m2 FEW
16:28 -1.5 °F -3.8 °F 1012.4 in SW 1.4 mph 14.8 mph 84% 0.0 in WeatherDisplay:10.37 W/m2 FEW
16:33 -1.5 °F -3.8 °F 1012.1 in Calm     84% 0.0 in WeatherDisplay:10.37 W/m2 FEW
16:38 -1.5 °F -4.0 °F 1012.1 in SSE 0.3 mph 3.2 mph 83% 0.0 in WeatherDisplay:10.37 W/m2 FEW
16:43 -1.5 °F -4.0 °F 1011.7 in Calm     83% 0.0 in WeatherDisplay:10.37 W/m2 FEW
16:48 -1.5 °F -3.8 °F 1011.7 in Calm     84% 0.0 in WeatherDisplay:10.37 W/m2 FEW
16:54 -1.5 °F -3.8 °F 1011.7 in WNW 1.1 mph 5.6 mph 84% 0.0 in WeatherDisplay:10.37 W/m2 FEW
16:59 -1.6 °F -3.9 °F 1011.4 in SE 2.1 mph 3.7 mph 84% 0.0 in WeatherDisplay:10.37 W/m2 FEW
17:05 -1.6 °F -3.9 °F 1011.1 in Calm     84% 0.0 in WeatherDisplay:10.37 W/m2 FEW
17:08 -1.6 °F -3.9 °F 1011.1 in SSW 0.8 mph 3.7 mph 84% 0.0 in WeatherDisplay:10.37 W/m2 FEW
17:13 -1.5 °F -3.8 °F 1011.1 in Calm     84% 0.0 in WeatherDisplay:10.37 W/m2 FEW
17:18 -1.5 °F -4.0 °F 1010.7 in SE 0.2 mph 3.2 mph 83% 0.0 in WeatherDisplay:10.37 W/m2 FEW
17:23 -1.4 °F -3.8 °F 1010.7 in Calm     84% 0.0 in WeatherDisplay:10.37 W/m2 FEW
17:28 -1.4 °F -3.9 °F 1010.7 in NNE 2.4 mph 3.7 mph 83% 0.0 in WeatherDisplay:10.37 W/m2 FEW
17:33 -1.3 °F -3.9 °F 1010.7 in WNW 1.0 mph 5.6 mph 82% 0.0 in WeatherDisplay:10.37 W/m2 FEW
17:39 -1.2 °F -4.0 °F 1010.4 in West 4.0 mph 9.3 mph 81% 0.0 in WeatherDisplay:10.37 W/m2 FEW
17:44 -1.1 °F -4.1 °F 1010.4 in WNW 3.9 mph 11.1 mph 80% 0.0 in WeatherDisplay:10.37 W/m2 FEW
17:49 -0.9 °F -4.1 °F 1010.0 in West 1.4 mph 5.6 mph 79% 0.0 in WeatherDisplay:10.37 W/m2 FEW
17:55 -0.8 °F -4.1 °F 1010.0 in WNW 3.2 mph 7.4 mph 78% 0.0 in WeatherDisplay:10.37 W/m2 FEW
18:00 -0.7 °F -4.2 °F 1010.0 in WSW 5.0 mph 14.8 mph 77% 0.0 in WeatherDisplay:10.37 W/m2 FEW
18:05 -0.4 °F -4.2 °F 1010.0 in SSW 4.8 mph 11.3 mph 76% 0.0 in WeatherDisplay:10.37 W/m2 FEW
18:10 -0.4 °F -3.9 °F 1010.0 in West 6.6 mph 13.0 mph 77% 0.0 in WeatherDisplay:10.37 W/m2 FEW
18:15 -0.4 °F -3.8 °F 1010.0 in WNW 1.1 mph 6.4 mph 78% 0.0 in WeatherDisplay:10.37 W/m2 FEW
18:25 -0.5 °F -3.5 °F 1009.7 in NW 5.0 mph 22.2 mph 80% 0.0 in WeatherDisplay:10.37 W/m2 FEW
18:31 -0.7 °F -3.3 °F 1009.7 in WSW 2.9 mph 9.3 mph 82% 0.0 in WeatherDisplay:10.37 W/m2 FEW
18:36 -0.8 °F -3.2 °F 1009.7 in NNE 2.7 mph 5.6 mph 84% 0.0 in WeatherDisplay:10.37 W/m2 FEW
18:42 -1.0 °F -3.1 °F 1010.0 in WNW 4.0 mph 5.6 mph 86% 0.0 in WeatherDisplay:10.37 W/m2 FEW
18:46 -1.1 °F -2.9 °F 1009.7 in NNW 6.6 mph 16.7 mph 87% 0.0 in WeatherDisplay:10.37 W/m2 FEW
18:52 -1.2 °F -2.9 °F 1009.7 in NE 4.3 mph 9.7 mph 88% 0.0 in WeatherDisplay:10.37 W/m2 FEW
18:57 -1.3 °F -2.9 °F 1009.7 in NNW 2.7 mph 5.6 mph 89% 0.0 in WeatherDisplay:10.37 W/m2 FEW
19:02 -1.4 °F -2.8 °F 1009.7 in West 0.2 mph 6.4 mph 90% 0.0 in WeatherDisplay:10.37 W/m2 FEW
19:07 -1.4 °F -2.9 °F 1009.4 in West 4.5 mph 7.4 mph 90% 0.0 in WeatherDisplay:10.37 W/m2 FEW
19:12 -1.5 °F -2.8 °F 1009.4 in NW 4.0 mph 11.1 mph 91% 0.0 in WeatherDisplay:10.37 W/m2 FEW
19:17 -1.6 °F -3.0 °F 1009.4 in WSW 1.6 mph 5.6 mph 90% 0.0 in WeatherDisplay:10.37 W/m2 FEW
19:22 -1.6 °F -3.0 °F 1009.4 in West 3.5 mph 16.7 mph 90% 0.0 in WeatherDisplay:10.37 W/m2 FEW
19:27 -1.6 °F -3.0 °F 1009.4 in NW 3.1 mph 12.9 mph 90% 0.0 in WeatherDisplay:10.37 W/m2 FEW
19:32 -1.6 °F -2.8 °F 1009.4 in NNE 1.3 mph 7.4 mph 91% 0.0 in WeatherDisplay:10.37 W/m2 FEW
19:37 -1.5 °F -2.9 °F 1009.4 in NNW 2.4 mph 9.3 mph 90% 0.0 in WeatherDisplay:10.37 W/m2 FEW
19:42 -1.5 °F -2.9 °F 1009.4 in WSW 4.7 mph 11.1 mph 90% 0.0 in WeatherDisplay:10.37 W/m2 FEW
19:48 -1.4 °F -3.0 °F 1009.4 in WSW 5.1 mph 11.1 mph 89% 0.0 in WeatherDisplay:10.37 W/m2 FEW
19:53 -1.4 °F -2.9 °F 1009.0 in West 0.8 mph 11.1 mph 89% 0.0 in WeatherDisplay:10.37 W/m2 FEW
19:59 -1.4 °F -2.9 °F 1009.0 in NW 3.5 mph 11.1 mph 89% 0.0 in WeatherDisplay:10.37 W/m2 FEW
20:04 -1.4 °F -3.1 °F 1009.0 in West 9.0 mph 16.7 mph 88% 0.0 in WeatherDisplay:10.37 W/m2 FEW
20:09 -1.3 °F -3.1 °F 1009.0 in WNW 3.4 mph 11.1 mph 88% 0.0 in WeatherDisplay:10.37 W/m2 FEW
20:19 -1.3 °F -3.2 °F 1009.0 in Calm   1.9 mph 87% 0.0 in WeatherDisplay:10.37 W/m2 FEW
20:24 -1.3 °F -3.2 °F 1009.0 in SW 5.3 mph 9.3 mph 87% 0.0 in WeatherDisplay:10.37 W/m2 FEW
20:29 -1.2 °F -3.3 °F 1009.0 in West 3.9 mph 7.4 mph 86% 0.0 in WeatherDisplay:10.37 W/m2 FEW
20:34 -1.2 °F -3.3 °F 1009.0 in NNW 4.2 mph 7.4 mph 86% 0.0 in WeatherDisplay:10.37 W/m2 FEW
20:39 -1.2 °F -3.4 °F 1008.7 in Calm     85% 0.0 in WeatherDisplay:10.37 W/m2 FEW
20:44 -1.2 °F -3.4 °F 1008.7 in West 1.3 mph 4.8 mph 85% 0.0 in WeatherDisplay:10.37 W/m2 FEW
20:49 -1.2 °F -3.5 °F 1009.0 in West 1.4 mph   84% 0.0 in WeatherDisplay:10.37 W/m2 FEW
20:54 -1.2 °F -3.5 °F 1009.0 in ESE 0.8 mph   84% 0.0 in WeatherDisplay:10.37 W/m2 FEW
21:00 -1.1 °F -3.4 °F 1009.0 in West 1.0 mph 13.0 mph 84% 0.0 in WeatherDisplay:10.37 W/m2 FEW
21:05 -1.1 °F -3.4 °F 1009.0 in WSW 2.6 mph 5.6 mph 84% 0.0 in WeatherDisplay:10.37 W/m2 FEW
21:10 -1.1 °F -3.6 °F 1009.0 in NW 1.3 mph 5.6 mph 83% 0.0 in WeatherDisplay:10.37 W/m2 FEW
21:15 -1.1 °F -3.6 °F 1009.0 in WNW 3.1 mph 13.0 mph 83% 0.0 in WeatherDisplay:10.37 W/m2 FEW
21:17 -1.1 °F -3.6 °F 1009.0 in North 4.7 mph 18.5 mph 83% 0.0 in WeatherDisplay:10.37 W/m2 FEW
21:24 -1.0 °F -3.5 °F 1009.0 in West 1.0 mph 5.6 mph 83% 0.0 in WeatherDisplay:10.37 W/m2 FEW
21:29 -0.9 °F -3.4 °F 1009.0 in West 4.2 mph 9.3 mph 83% 0.0 in WeatherDisplay:10.37 W/m2 FEW
21:35 -0.9 °F -3.4 °F 1009.0 in WNW 1.9 mph 9.3 mph 83% 0.0 in WeatherDisplay:10.37 W/m2 FEW
21:40 -0.9 °F -3.4 °F 1009.0 in WSW 2.3 mph 3.7 mph 83% 0.0 in WeatherDisplay:10.37 W/m2 FEW
21:46 -0.9 °F -3.4 °F 1009.0 in WNW 2.7 mph 11.1 mph 83% 0.0 in WeatherDisplay:10.37 W/m2 FEW
21:51 -0.8 °F -3.5 °F 1009.0 in WNW 8.4 mph 20.4 mph 82% 0.0 in WeatherDisplay:10.37 W/m2 FEW
21:56 -0.7 °F -3.4 °F 1009.0 in WNW 0.8 mph 18.5 mph 82% 0.0 in WeatherDisplay:10.37 W/m2 FEW
22:02 -0.8 °F -3.4 °F 1009.0 in West 0.2 mph 5.6 mph 82% 0.0 in WeatherDisplay:10.37 W/m2 FEW
22:07 -0.7 °F -3.4 °F 1009.0 in WNW 0.6 mph 5.6 mph 82% 0.0 in WeatherDisplay:10.37 W/m2 FEW
22:08 -0.8 °F -3.4 °F 1009.0 in NW 1.4 mph 5.6 mph 82% 0.0 in WeatherDisplay:10.37 W/m2 FEW
22:16 -0.8 °F -3.4 °F 1009.0 in WNW 1.1 mph 1.6 mph 82% 0.0 in WeatherDisplay:10.37 W/m2 FEW
22:22 -0.8 °F -3.3 °F 1009.0 in WSW 2.7 mph 13.0 mph 83% 0.0 in WeatherDisplay:10.37 W/m2 FEW
22:27 -0.8 °F -3.3 °F 1009.0 in West 4.8 mph 5.6 mph 83% 0.0 in WeatherDisplay:10.37 W/m2 FEW
22:32 -0.8 °F -3.3 °F 1009.0 in WSW 3.4 mph 8.0 mph 83% 0.0 in WeatherDisplay:10.37 W/m2 FEW
22:37 -0.8 °F -3.3 °F 1009.0 in SW 8.7 mph 8.7 mph 83% 0.0 in WeatherDisplay:10.37 W/m2 FEW
22:42 -0.7 °F -3.3 °F 1009.0 in WSW 7.6 mph 18.5 mph 83% 0.0 in WeatherDisplay:10.37 W/m2 FEW
22:48 -0.7 °F -3.3 °F 1009.0 in North 5.8 mph 11.3 mph 83% 0.0 in WeatherDisplay:10.37 W/m2 FEW
22:54 -0.7 °F -3.2 °F 1009.4 in NW 2.3 mph 5.6 mph 83% 0.0 in WeatherDisplay:10.37 W/m2 FEW
22:58 -0.7 °F -3.3 °F 1009.0 in SW 4.2 mph 6.4 mph 82% 0.0 in WeatherDisplay:10.37 W/m2 FEW
23:03 -0.6 °F -3.3 °F 1009.0 in West 4.5 mph 13.0 mph 82% 0.0 in WeatherDisplay:10.37 W/m2 FEW
23:08 -0.6 °F -3.3 °F 1009.0 in West 6.4 mph 7.4 mph 82% 0.0 in WeatherDisplay:10.37 W/m2 FEW
23:14 -0.6 °F -3.3 °F 1009.0 in WNW 4.3 mph 7.4 mph 82% 0.0 in WeatherDisplay:10.37 W/m2 FEW
23:19 -0.6 °F -3.3 °F 1009.0 in West 1.0 mph 3.7 mph 82% 0.0 in WeatherDisplay:10.37 W/m2 FEW
23:24 -0.6 °F -3.4 °F 1009.0 in North 3.1 mph 5.6 mph 81% 0.0 in WeatherDisplay:10.37 W/m2 FEW
23:29 -0.6 °F -3.3 °F 1009.0 in WSW 3.7 mph 4.8 mph 82% 0.0 in WeatherDisplay:10.37 W/m2 FEW
23:34 -0.6 °F -3.4 °F 1009.0 in SW 1.4 mph 6.4 mph 81% 0.0 in WeatherDisplay:10.37 W/m2 FEW
23:39 -0.5 °F -3.3 °F 1009.0 in SW 5.6 mph 11.1 mph 81% 0.0 in WeatherDisplay:10.37 W/m2 FEW
23:44 -0.4 °F -3.5 °F 1009.0 in WNW 2.3 mph 7.4 mph 80% 0.0 in WeatherDisplay:10.37 W/m2 FEW
23:49 -0.3 °F -3.4 °F 1009.0 in NNW 3.7 mph 7.4 mph 80% 0.0 in WeatherDisplay:10.37 W/m2 FEW
23:54 -0.3 °F -3.5 °F 1008.7 in WSW 2.6 mph 18.5 mph 79% 0.0 in WeatherDisplay:10.37 W/m2 FEW
Tuulensuunkaari, Veikkola, Suomi
Compliments of Weather Underground - 2.5 mb